Blackjack, Mississippi
Current Conditions -  °F | °C
As of 1:55 PM on Sunday 23 Nov 2014 (Local Time) from KSTF Reporting Station
Overcast Overcast  
Wind Chill: 68°   Ceiling: 2600
Heat Index: 68°   Visibility: NA
Dew Point: 61°   Wind: 12mph
Humidity: 78%   Direction: 190°S
Pressure: 29.45"   Gusts: 23mph
Location:  33.4256°N, 88.8438°W
Report Text: KSTF 231955Z AUTO 19010G20KT SCT020 BKN026 OVC065 20/16 A2945 RMK AO2 PWINO
Loading
Personal Weather Stations






























Interactive Weather Map New forecast layout! Learn more

10-Day Weather Forecast

Advertisements
Track Severe Weather on mobile